createdAt,value
2022-11-24T00:01:33.143Z,87.92
2022-11-24T00:03:34.940Z,87.33
2022-11-24T00:05:38.384Z,87.41
2022-11-24T00:07:39.845Z,87.68
2022-11-24T00:09:41.348Z,87.58
2022-11-24T00:11:42.796Z,87.25
2022-11-24T00:13:44.760Z,87.73
2022-11-24T00:15:46.180Z,86.83
2022-11-24T00:17:47.696Z,87.55
2022-11-24T00:19:49.117Z,87.56
2022-11-24T00:21:50.549Z,86.89
2022-11-24T00:23:52.359Z,87.43
2022-11-24T00:25:53.814Z,87.26
2022-11-24T00:27:55.199Z,87.13
2022-11-24T00:29:57.601Z,87.31
2022-11-24T00:31:59.127Z,87.65
2022-11-24T00:34:03.684Z,87.85
2022-11-24T00:36:05.444Z,87.77
2022-11-24T00:38:06.879Z,87.64
2022-11-24T00:40:08.747Z,86.99
2022-11-24T00:42:10.209Z,87.59
2022-11-24T00:44:11.656Z,86.94
2022-11-24T00:46:13.477Z,87.06
2022-11-24T00:48:15.376Z,87.31
2022-11-24T00:50:16.869Z,87.52
2022-11-24T00:52:18.275Z,87.09
2022-11-24T00:54:19.757Z,87.73
2022-11-24T00:56:21.248Z,87.57
2022-11-24T00:58:23.982Z,87.32
2022-11-24T01:00:26.363Z,87.53
2022-11-24T01:02:27.816Z,87.55
2022-11-24T01:04:29.212Z,86.93
2022-11-24T01:06:32.312Z,87.42
2022-11-24T01:08:34.363Z,86.57
2022-11-24T01:10:36.058Z,87.01
2022-11-24T01:12:37.556Z,86.93
2022-11-24T01:14:39.208Z,87.74
2022-11-24T01:16:40.621Z,87.35
2022-11-24T01:18:42.382Z,87.15
2022-11-24T01:20:43.804Z,87.87
2022-11-24T01:22:48.339Z,87.61
2022-11-24T01:24:49.771Z,87.82
2022-11-24T01:26:51.437Z,87.35
2022-11-24T01:28:55.000Z,87.89
2022-11-24T01:30:58.128Z,87.20
2022-11-24T01:32:59.627Z,87.38
2022-11-24T01:35:01.046Z,86.89
2022-11-24T01:37:02.463Z,86.99
2022-11-24T01:39:03.995Z,87.41
2022-11-24T01:41:14.159Z,87.58
2022-11-24T01:43:21.253Z,87.12
2022-11-24T01:45:41.945Z,87.32
2022-11-24T01:47:43.501Z,86.94
2022-11-24T01:49:48.686Z,87.08
2022-11-24T01:52:13.066Z,86.73
2022-11-24T01:54:20.181Z,86.70
2022-11-24T01:56:21.700Z,86.92
2022-11-24T01:58:27.648Z,87.30
2022-11-24T02:00:29.191Z,87.56
2022-11-24T02:02:30.817Z,86.96
2022-11-24T02:04:34.496Z,87.89
2022-11-24T02:06:38.591Z,87.51
2022-11-24T02:08:57.221Z,87.40
2022-11-24T02:11:00.829Z,87.03
2022-11-24T02:13:03.380Z,87.18
2022-11-24T02:15:05.328Z,87.88
2022-11-24T02:17:06.888Z,87.51
2022-11-24T02:19:22.055Z,87.43
2022-11-24T02:21:23.732Z,87.22
2022-11-24T02:23:39.639Z,87.55
2022-11-24T02:25:47.076Z,86.75
2022-11-24T02:27:53.653Z,86.87
2022-11-24T02:29:55.629Z,86.75
2022-11-24T02:32:01.257Z,87.12
2022-11-24T02:34:02.753Z,86.82
2022-11-24T02:36:04.286Z,85.73
2022-11-24T02:38:06.070Z,85.89
2022-11-24T02:40:09.934Z,85.59
2022-11-24T02:42:13.606Z,86.24
2022-11-24T02:44:17.464Z,86.27
2022-11-24T02:46:18.949Z,85.41
2022-11-24T02:48:20.508Z,85.47
2022-11-24T02:50:21.917Z,86.16
2022-11-24T02:52:23.350Z,85.83
2022-11-24T02:54:24.811Z,85.88
2022-11-24T02:56:27.183Z,85.53
2022-11-24T02:58:28.671Z,85.11
2022-11-24T03:00:30.353Z,85.71
2022-11-24T03:02:32.107Z,85.92
2022-11-24T03:04:33.937Z,85.27
2022-11-24T03:06:35.700Z,84.99
2022-11-24T03:08:37.084Z,84.97
2022-11-24T03:10:39.000Z,85.12
2022-11-24T03:12:40.448Z,84.59
2022-11-24T03:14:41.869Z,85.41
2022-11-24T03:16:43.309Z,85.09
2022-11-24T03:18:44.743Z,84.38
2022-11-24T03:20:46.172Z,84.96
2022-11-24T03:22:47.748Z,85.17
2022-11-24T03:24:49.212Z,84.76
2022-11-24T03:27:15.962Z,85.42
2022-11-24T03:29:17.412Z,85.21
2022-11-24T03:31:18.885Z,84.99
2022-11-24T03:33:20.340Z,85.29
2022-11-24T03:35:22.163Z,85.02
2022-11-24T03:37:23.912Z,85.62
2022-11-24T03:39:25.455Z,84.85
2022-11-24T03:41:26.863Z,85.31
2022-11-24T03:43:28.384Z,85.19
2022-11-24T03:45:45.318Z,85.25
2022-11-24T03:47:51.526Z,85.48
2022-11-24T03:49:52.926Z,85.44
2022-11-24T03:51:54.355Z,85.62
2022-11-24T03:53:55.735Z,85.41
2022-11-24T03:55:57.721Z,85.43
2022-11-24T03:57:59.149Z,85.33
2022-11-24T04:00:00.533Z,85.45
2022-11-24T04:02:02.057Z,85.58
2022-11-24T04:04:06.006Z,85.23
2022-11-24T04:06:07.418Z,85.22
2022-11-24T04:08:09.306Z,85.11
2022-11-24T04:10:10.785Z,85.77
2022-11-24T04:12:31.124Z,85.73
2022-11-24T04:14:32.940Z,85.30
2022-11-24T04:16:34.643Z,85.69
2022-11-24T04:18:36.034Z,86.12
2022-11-24T04:20:37.533Z,85.97
2022-11-24T04:22:39.709Z,85.26
2022-11-24T04:24:41.150Z,85.86
2022-11-24T04:26:42.535Z,85.20
2022-11-24T04:28:43.891Z,85.57
2022-11-24T04:30:45.482Z,85.51
2022-11-24T04:32:47.286Z,85.00
2022-11-24T04:34:48.653Z,85.74
2022-11-24T04:36:49.993Z,85.08
2022-11-24T04:39:23.941Z,85.10
2022-11-24T04:41:15.187Z,85.09
2022-11-24T04:43:18.607Z,84.58
2022-11-24T04:45:19.970Z,84.64
2022-11-24T04:47:24.281Z,84.54
2022-11-24T04:49:25.627Z,85.01
2022-11-24T04:51:27.239Z,84.93
2022-11-24T04:53:28.593Z,85.24
2022-11-24T04:55:29.983Z,85.20
2022-11-24T04:57:31.355Z,86.39
2022-11-24T04:59:32.778Z,85.56
2022-11-24T05:01:34.298Z,85.39
2022-11-24T05:03:36.764Z,86.26
2022-11-24T05:05:38.119Z,86.33
2022-11-24T05:07:39.705Z,86.53
2022-11-24T05:10:00.004Z,86.76
2022-11-24T05:12:01.418Z,87.07
2022-11-24T05:14:02.889Z,87.42
2022-11-24T05:16:04.712Z,88.07
2022-11-24T05:18:08.373Z,87.74
2022-11-24T05:20:09.892Z,87.70
2022-11-24T05:22:11.243Z,87.71
2022-11-24T05:24:12.707Z,88.08
2022-11-24T05:26:14.314Z,87.29
2022-11-24T05:28:16.120Z,87.90
2022-11-24T05:30:17.562Z,87.75
2022-11-24T05:32:18.995Z,88.03
2022-11-24T05:34:20.345Z,87.90
2022-11-24T05:36:40.194Z,87.50
2022-11-24T05:38:41.720Z,88.45
2022-11-24T05:40:43.382Z,88.20
2022-11-24T05:42:47.843Z,88.03
2022-11-24T05:44:49.687Z,87.61
2022-11-24T05:46:51.971Z,88.32
2022-11-24T05:48:53.408Z,88.14
2022-11-24T05:50:58.341Z,87.91
2022-11-24T05:53:08.175Z,88.11
2022-11-24T05:55:10.802Z,88.13
2022-11-24T05:57:13.081Z,87.59
2022-11-24T05:59:14.411Z,87.50
2022-11-24T06:01:15.773Z,88.29
2022-11-24T06:03:17.199Z,88.63
2022-11-24T06:05:18.625Z,88.33
2022-11-24T06:07:20.115Z,87.92
2022-11-24T06:09:21.544Z,87.36
2022-11-24T06:11:22.971Z,88.14
2022-11-24T06:13:24.349Z,88.10
2022-11-24T06:15:26.001Z,88.32
2022-11-24T06:17:27.872Z,87.36
2022-11-24T06:19:29.232Z,88.22
2022-11-24T06:21:30.846Z,87.45
2022-11-24T06:23:32.491Z,88.29
2022-11-24T06:25:33.885Z,88.23
2022-11-24T06:27:35.817Z,87.78
2022-11-24T06:29:37.176Z,87.62
2022-11-24T06:31:40.374Z,87.97
2022-11-24T06:33:41.922Z,87.52
2022-11-24T06:35:43.282Z,87.72
2022-11-24T06:37:45.830Z,87.93
2022-11-24T06:39:47.253Z,88.37
2022-11-24T06:41:52.397Z,88.23
2022-11-24T06:43:54.068Z,88.05
2022-11-24T06:45:56.320Z,87.14
2022-11-24T06:47:57.735Z,87.01
2022-11-24T06:49:59.449Z,87.29
2022-11-24T06:52:00.838Z,87.64
2022-11-24T06:54:02.365Z,87.16
2022-11-24T06:56:15.215Z,86.80
2022-11-24T06:58:17.445Z,86.29
2022-11-24T07:00:19.152Z,86.38
2022-11-24T07:02:20.552Z,86.56
2022-11-24T07:04:21.921Z,87.14
2022-11-24T07:06:25.208Z,87.66
2022-11-24T07:08:28.190Z,87.41
2022-11-24T07:10:29.621Z,86.95
2022-11-24T07:12:35.063Z,86.31
2022-11-24T07:14:36.820Z,86.46
2022-11-24T07:16:38.983Z,86.43
2022-11-24T07:18:40.498Z,86.58
2022-11-24T07:20:41.892Z,86.10
2022-11-24T07:22:43.235Z,85.70
2022-11-24T07:24:44.578Z,85.65
2022-11-24T07:26:45.965Z,85.04
2022-11-24T07:28:47.674Z,84.49
2022-11-24T07:30:49.108Z,86.10
2022-11-24T07:32:50.644Z,84.81
2022-11-24T07:34:52.000Z,85.12
2022-11-24T07:36:53.444Z,85.16
2022-11-24T07:38:54.857Z,84.24
2022-11-24T07:41:03.667Z,84.08
2022-11-24T07:43:05.062Z,83.68
2022-11-24T07:45:07.000Z,84.15
2022-11-24T07:47:08.367Z,83.56
2022-11-24T07:49:09.711Z,83.30
2022-11-24T07:51:11.169Z,83.51
2022-11-24T07:53:12.538Z,83.38
2022-11-24T07:55:14.109Z,84.16
2022-11-24T07:57:15.645Z,83.86
2022-11-24T07:59:17.011Z,83.61
2022-11-24T08:01:18.840Z,83.20
2022-11-24T08:03:20.346Z,83.43
2022-11-24T08:05:21.781Z,82.86
2022-11-24T08:07:23.409Z,82.73
2022-11-24T08:09:24.799Z,82.52
2022-11-24T08:11:26.342Z,82.35
2022-11-24T08:13:27.695Z,82.37
2022-11-24T08:15:29.069Z,82.57
2022-11-24T08:17:30.524Z,81.71
2022-11-24T08:19:32.346Z,82.11
2022-11-24T08:21:33.751Z,80.88
2022-11-24T08:23:35.226Z,81.51
2022-11-24T08:25:36.965Z,81.26
2022-11-24T08:27:40.006Z,80.52
2022-11-24T08:29:42.092Z,80.98
2022-11-24T08:31:43.634Z,81.17
2022-11-24T08:33:45.088Z,80.08
2022-11-24T08:35:46.498Z,80.56
2022-11-24T08:37:47.886Z,80.41
2022-11-24T08:39:49.262Z,80.46
2022-11-24T08:41:50.659Z,80.51
2022-11-24T08:43:52.097Z,80.27
2022-11-24T08:45:53.748Z,80.29
2022-11-24T08:47:56.558Z,79.71
2022-11-24T08:49:58.000Z,79.31
2022-11-24T08:51:59.427Z,79.38
2022-11-24T08:54:01.955Z,79.35
2022-11-24T08:56:04.143Z,79.06
2022-11-24T08:58:05.496Z,80.10
2022-11-24T09:00:07.589Z,80.34
2022-11-24T09:02:13.164Z,80.14
2022-11-24T09:04:40.563Z,80.94
2022-11-24T09:06:41.994Z,80.59
2022-11-24T09:08:43.350Z,80.10
2022-11-24T09:10:44.726Z,79.90
2022-11-24T09:12:47.074Z,79.78
2022-11-24T09:14:48.451Z,79.51
2022-11-24T09:16:49.893Z,79.46
2022-11-24T09:18:59.907Z,79.69
2022-11-24T09:21:08.505Z,79.57
2022-11-24T09:23:09.881Z,80.39
2022-11-24T09:25:11.269Z,79.88
2022-11-24T09:27:12.670Z,79.75
2022-11-24T09:29:14.294Z,80.44
2022-11-24T09:31:18.782Z,81.53
2022-11-24T09:33:20.181Z,82.29
2022-11-24T09:35:21.592Z,82.92
2022-11-24T09:37:25.899Z,82.71
2022-11-24T09:39:29.524Z,82.50
2022-11-24T09:41:45.944Z,82.42
2022-11-24T09:44:08.634Z,82.48
2022-11-24T09:46:47.273Z,82.37
2022-11-24T09:48:54.829Z,82.83
2022-11-24T09:51:01.321Z,82.74
2022-11-24T09:53:17.012Z,82.14
2022-11-24T09:55:29.284Z,82.18
2022-11-24T09:57:37.746Z,81.58
2022-11-24T09:59:41.613Z,81.19
2022-11-24T10:01:45.173Z,81.72
2022-11-24T10:03:51.311Z,82.05
2022-11-24T10:05:53.344Z,81.93
2022-11-24T10:08:21.194Z,81.58
2022-11-24T10:10:48.569Z,81.35
2022-11-24T10:12:55.452Z,81.02
2022-11-24T10:15:15.747Z,80.74
2022-11-24T10:18:16.408Z,80.73
2022-11-24T10:20:27.132Z,80.18
2022-11-24T10:23:03.675Z,80.11
2022-11-24T10:25:30.626Z,80.63
2022-11-24T10:27:40.062Z,81.00
2022-11-24T10:29:42.977Z,81.39
2022-11-24T10:31:45.907Z,80.57
2022-11-24T10:33:48.027Z,80.80
2022-11-24T10:35:52.619Z,81.70
2022-11-24T10:38:02.145Z,80.65
2022-11-24T10:40:26.899Z,80.30
2022-11-24T10:42:38.536Z,80.16
2022-11-24T10:44:41.939Z,80.48
2022-11-24T10:46:43.667Z,80.46
2022-11-24T10:48:52.981Z,80.14
2022-11-24T10:51:24.522Z,80.48
2022-11-24T10:53:30.125Z,80.32
2022-11-24T10:55:54.867Z,80.66
2022-11-24T10:58:15.131Z,81.45
2022-11-24T11:00:19.709Z,80.65
2022-11-24T11:02:37.320Z,80.43
2022-11-24T11:04:38.741Z,81.12
2022-11-24T11:06:40.460Z,80.51
2022-11-24T11:08:41.858Z,80.54
2022-11-24T11:10:44.849Z,80.67
2022-11-24T11:12:46.581Z,80.58
2022-11-24T11:14:48.369Z,80.97
2022-11-24T11:16:53.268Z,81.85
2022-11-24T11:18:54.816Z,81.62
2022-11-24T11:20:58.140Z,81.18
2022-11-24T11:23:13.197Z,81.07
2022-11-24T11:25:18.626Z,80.55
2022-11-24T11:27:23.474Z,80.80
2022-11-24T11:34:41.632Z,79.73
2022-11-24T11:36:49.298Z,79.19
2022-11-24T11:38:50.747Z,78.51
2022-11-24T11:40:52.349Z,78.61
2022-11-24T11:43:06.762Z,78.45
2022-11-24T11:45:16.247Z,78.44
2022-11-24T11:47:22.563Z,77.32
2022-11-24T11:49:24.464Z,76.47
2022-11-24T11:51:32.047Z,77.35
2022-11-24T11:53:46.364Z,77.04
2022-11-24T11:56:17.043Z,76.64
2022-11-24T11:58:44.813Z,76.10
2022-11-24T12:01:15.267Z,75.31
2022-11-24T12:03:26.616Z,75.66
2022-11-24T12:05:34.749Z,76.33
2022-11-24T12:07:53.783Z,76.31
2022-11-24T12:10:04.080Z,76.51
2022-11-24T12:12:45.149Z,75.39
2022-11-24T12:15:34.120Z,75.65
2022-11-24T12:17:46.861Z,76.06
2022-11-24T12:19:57.391Z,75.49
2022-11-24T12:22:17.526Z,74.18
2022-11-24T12:24:35.110Z,74.58
2022-11-24T12:26:48.451Z,74.12
2022-11-24T12:29:04.859Z,75.40
2022-11-24T12:31:08.453Z,74.76
2022-11-24T12:33:30.123Z,75.16
2022-11-24T12:35:46.164Z,74.65
2022-11-24T12:38:09.168Z,74.61
2022-11-24T12:40:40.895Z,74.96
2022-11-24T12:43:16.626Z,75.26
2022-11-24T12:45:28.330Z,74.36
2022-11-24T12:47:56.207Z,74.32
2022-11-24T12:50:02.723Z,74.21
2022-11-24T12:52:23.173Z,73.64
2022-11-24T12:54:25.644Z,74.52
2022-11-24T12:56:38.085Z,74.28
2022-11-24T12:58:50.601Z,74.49
2022-11-24T13:01:18.435Z,75.11
2022-11-24T13:03:43.443Z,75.69
2022-11-24T13:06:00.772Z,74.34
2022-11-24T13:08:04.444Z,75.38
2022-11-24T13:10:53.620Z,74.58
2022-11-24T13:13:37.056Z,74.17
2022-11-24T13:18:46.647Z,74.67
2022-11-24T13:20:48.161Z,74.09
2022-11-24T13:23:03.842Z,74.07
2022-11-24T13:25:46.356Z,74.24
2022-11-24T13:27:53.496Z,74.24
2022-11-24T13:29:55.270Z,74.59
2022-11-24T13:32:02.322Z,74.46
2022-11-24T13:34:38.624Z,73.91
2022-11-24T13:36:53.123Z,74.12
2022-11-24T13:38:54.651Z,73.54
2022-11-24T13:41:13.386Z,74.07
2022-11-24T13:43:17.388Z,72.78
2022-11-24T13:45:44.917Z,74.01
2022-11-24T13:47:46.852Z,74.76
2022-11-24T13:49:50.103Z,74.11
2022-11-24T13:52:35.992Z,74.16
2022-11-24T13:54:41.457Z,73.13
2022-11-24T13:56:42.917Z,73.17
2022-11-24T13:58:57.867Z,73.26
2022-11-24T14:01:02.064Z,73.30
2022-11-24T14:03:06.693Z,74.13
2022-11-24T14:05:14.130Z,74.01
2022-11-24T14:07:16.785Z,73.05
2022-11-24T14:09:35.141Z,73.74
2022-11-24T14:11:36.773Z,74.46
2022-11-24T14:13:38.221Z,74.11
2022-11-24T14:15:39.820Z,73.94
2022-11-24T14:17:41.438Z,74.87
2022-11-24T14:19:48.132Z,75.56
2022-11-24T14:21:49.624Z,74.14
2022-11-24T14:24:03.343Z,75.07
2022-11-24T14:26:04.829Z,75.38
2022-11-24T14:28:22.291Z,75.79
2022-11-24T14:30:25.176Z,75.36
2022-11-24T14:32:27.458Z,75.67
2022-11-24T14:34:35.672Z,76.14
2022-11-24T14:36:38.235Z,75.91
2022-11-24T14:38:39.624Z,75.65
2022-11-24T14:40:50.582Z,75.69
2022-11-24T14:42:52.004Z,75.68
2022-11-24T14:44:59.374Z,76.15
2022-11-24T14:47:06.896Z,75.82
2022-11-24T14:49:08.994Z,76.52
2022-11-24T14:51:10.335Z,77.12
2022-11-24T14:53:15.336Z,77.32
2022-11-24T14:55:29.308Z,77.50
2022-11-24T14:57:36.242Z,77.01
2022-11-24T14:59:38.202Z,77.45
2022-11-24T15:01:39.837Z,77.77
2022-11-24T15:03:41.299Z,78.54
2022-11-24T15:05:55.691Z,79.00
2022-11-24T15:08:02.934Z,79.36
2022-11-24T15:10:06.886Z,78.28
2022-11-24T15:12:19.595Z,79.23
2022-11-24T15:14:44.057Z,79.59
2022-11-24T15:16:45.617Z,80.38
2022-11-24T15:18:48.924Z,80.38
2022-11-24T15:20:50.357Z,80.82
2022-11-24T15:23:23.741Z,81.10
2022-11-24T15:25:33.887Z,81.72
2022-11-24T15:27:35.250Z,81.18
2022-11-24T15:29:36.621Z,81.04
2022-11-24T15:31:45.135Z,81.65
2022-11-24T15:33:49.217Z,81.95
2022-11-24T15:35:50.612Z,81.75
2022-11-24T15:37:52.307Z,82.16
2022-11-24T15:39:53.651Z,82.09
2022-11-24T15:41:55.006Z,82.53
2022-11-24T15:43:59.268Z,81.94
2022-11-24T15:46:01.963Z,82.53
2022-11-24T15:48:03.400Z,83.03
2022-11-24T15:50:05.447Z,82.38
2022-11-24T15:52:07.012Z,82.91
2022-11-24T15:54:13.575Z,82.86
2022-11-24T15:56:23.232Z,83.20
2022-11-24T15:58:25.040Z,82.82
2022-11-24T16:00:26.453Z,83.31
2022-11-24T16:02:28.572Z,83.58
2022-11-24T16:04:30.115Z,83.58
2022-11-24T16:06:31.720Z,83.39
2022-11-24T16:08:33.153Z,83.70
2022-11-24T16:10:36.482Z,84.29
2022-11-24T16:12:37.878Z,83.96
2022-11-24T16:14:39.489Z,83.71
2022-11-24T16:16:41.360Z,83.81
2022-11-24T16:18:44.988Z,84.18
2022-11-24T16:20:46.413Z,83.95
2022-11-24T16:22:48.028Z,84.16
2022-11-24T16:24:49.453Z,84.09
2022-11-24T16:26:50.857Z,84.54
2022-11-24T16:28:52.416Z,85.29
2022-11-24T16:30:53.762Z,84.80
2022-11-24T16:32:55.269Z,84.53
2022-11-24T16:34:56.869Z,84.44
2022-11-24T16:36:58.409Z,85.28
2022-11-24T16:39:00.336Z,84.88
2022-11-24T16:43:28.964Z,84.99
2022-11-24T16:45:30.384Z,85.14
2022-11-24T16:47:31.870Z,85.79
2022-11-24T16:49:33.268Z,85.16
2022-11-24T16:51:35.387Z,85.10
2022-11-24T16:53:37.408Z,85.05
2022-11-24T16:55:38.748Z,85.58
2022-11-24T16:57:40.130Z,86.03
2022-11-24T16:59:43.267Z,85.27
2022-11-24T17:01:46.592Z,85.95
2022-11-24T17:03:48.281Z,85.41
2022-11-24T17:06:02.214Z,85.37
2022-11-24T17:08:03.634Z,85.83
2022-11-24T17:10:06.839Z,85.88
2022-11-24T17:12:08.284Z,85.71
2022-11-24T17:14:10.689Z,86.32
2022-11-24T17:16:15.554Z,86.27
2022-11-24T17:18:24.373Z,86.65
2022-11-24T17:20:26.510Z,86.27
2022-11-24T17:22:27.925Z,85.82
2022-11-24T17:24:29.389Z,85.91
2022-11-24T17:26:31.846Z,86.07
2022-11-24T17:28:34.479Z,86.55
2022-11-24T17:30:36.893Z,86.53
2022-11-24T17:32:38.305Z,86.15
2022-11-24T17:34:39.716Z,87.98
2022-11-24T17:36:41.933Z,86.90
2022-11-24T17:38:43.397Z,86.14
2022-11-24T17:40:48.227Z,86.51
2022-11-24T17:42:49.653Z,85.77
2022-11-24T17:45:16.287Z,85.76
2022-11-24T17:47:17.985Z,85.89
2022-11-24T17:49:21.029Z,86.13
2022-11-24T17:51:24.519Z,85.58
2022-11-24T17:53:26.517Z,86.50
2022-11-24T17:55:27.930Z,85.67
2022-11-24T17:57:29.419Z,85.95
2022-11-24T17:59:30.786Z,85.71
2022-11-24T18:01:33.058Z,86.16
2022-11-24T18:03:34.786Z,86.21
2022-11-24T18:05:36.844Z,86.17
2022-11-24T18:07:38.294Z,86.02
2022-11-24T18:09:39.674Z,86.09
2022-11-24T18:11:41.057Z,85.74
2022-11-24T18:14:01.028Z,85.71
2022-11-24T18:16:05.373Z,86.02
2022-11-24T18:18:06.785Z,86.17
2022-11-24T18:20:08.593Z,85.03
2022-11-24T18:22:10.028Z,85.52
2022-11-24T18:24:12.888Z,85.80
2022-11-24T18:26:15.905Z,85.92
2022-11-24T18:28:17.273Z,85.62
2022-11-24T18:30:18.656Z,85.82
2022-11-24T18:32:20.083Z,85.39
2022-11-24T18:34:24.585Z,85.01
2022-11-24T18:36:30.388Z,84.76
2022-11-24T18:38:32.684Z,85.03
2022-11-24T18:40:38.688Z,85.05
2022-11-24T18:42:40.108Z,85.08
2022-11-24T18:44:42.316Z,85.35
2022-11-24T18:46:43.758Z,85.56
2022-11-24T18:48:45.735Z,84.51
2022-11-24T18:50:51.970Z,85.22
2022-11-24T18:52:53.395Z,84.82
2022-11-24T18:54:54.801Z,84.56
2022-11-24T18:57:00.292Z,84.85
2022-11-24T18:59:04.397Z,84.27
2022-11-24T19:01:17.335Z,84.86
2022-11-24T19:03:18.778Z,84.77
2022-11-24T19:05:20.493Z,84.74
2022-11-24T19:07:22.092Z,83.91
2022-11-24T19:09:25.359Z,83.95
2022-11-24T19:11:29.423Z,84.31
2022-11-24T19:13:30.796Z,84.80
2022-11-24T19:15:35.361Z,83.54
2022-11-24T19:17:36.757Z,83.80
2022-11-24T19:19:39.600Z,84.14
2022-11-24T19:21:41.263Z,83.97
2022-11-24T19:23:42.668Z,84.08
2022-11-24T19:25:44.685Z,83.78
2022-11-24T19:27:46.050Z,84.66
2022-11-24T19:29:47.974Z,84.07
2022-11-24T19:31:49.433Z,83.59
2022-11-24T19:33:56.504Z,83.89
2022-11-24T19:36:05.370Z,83.86
2022-11-24T19:38:06.763Z,83.73
2022-11-24T19:40:08.981Z,84.30
2022-11-24T19:42:10.329Z,84.35
2022-11-24T19:44:12.344Z,84.39
2022-11-24T19:46:18.333Z,83.95
2022-11-24T19:48:19.870Z,84.35
2022-11-24T19:50:21.300Z,84.38
2022-11-24T19:52:23.271Z,83.79
2022-11-24T19:54:24.649Z,84.46
2022-11-24T19:56:28.745Z,84.60
2022-11-24T19:58:30.305Z,84.17
2022-11-24T20:00:32.201Z,84.20
2022-11-24T20:02:33.830Z,84.12
2022-11-24T20:04:38.284Z,84.83
2022-11-24T20:06:43.239Z,84.58
2022-11-24T20:08:45.299Z,84.72
2022-11-24T20:10:46.639Z,84.41
2022-11-24T20:12:48.016Z,84.46
2022-11-24T20:14:49.434Z,85.03
2022-11-24T20:16:50.857Z,85.18
2022-11-24T20:18:54.279Z,84.86
2022-11-24T20:21:01.730Z,84.79
2022-11-24T20:23:03.380Z,84.90
2022-11-24T20:25:05.105Z,85.26
2022-11-24T20:27:06.762Z,85.12
2022-11-24T20:29:11.954Z,85.25
2022-11-24T20:31:15.923Z,85.11
2022-11-24T20:33:17.411Z,85.09
2022-11-24T20:35:18.906Z,85.43
2022-11-24T20:37:20.292Z,85.46
2022-11-24T20:39:25.360Z,85.39
2022-11-24T20:41:29.820Z,85.54
2022-11-24T20:43:31.972Z,85.85
2022-11-24T20:45:36.623Z,85.82
2022-11-24T20:47:38.027Z,85.32
2022-11-24T20:49:39.491Z,85.14
2022-11-24T20:51:47.362Z,85.85
2022-11-24T20:53:50.327Z,85.36
2022-11-24T20:55:51.675Z,85.97
2022-11-24T20:57:53.024Z,85.30
2022-11-24T20:59:54.408Z,86.21
2022-11-24T21:01:55.905Z,86.10
2022-11-24T21:03:59.358Z,85.90
2022-11-24T21:06:01.035Z,85.94
2022-11-24T21:08:02.438Z,85.98
2022-11-24T21:10:04.169Z,85.63
2022-11-24T21:12:05.788Z,86.01
2022-11-24T21:14:08.253Z,85.90
2022-11-24T21:16:37.394Z,85.89
2022-11-24T21:18:38.863Z,85.92
2022-11-24T21:20:40.563Z,85.90
2022-11-24T21:22:41.922Z,87.13
2022-11-24T21:24:43.305Z,86.05
2022-11-24T21:26:51.623Z,85.75
2022-11-24T21:28:52.958Z,85.82
2022-11-24T21:30:54.857Z,85.66
2022-11-24T21:32:56.224Z,85.80
2022-11-24T21:34:57.680Z,85.62
2022-11-24T21:36:59.036Z,85.67
2022-11-24T21:39:01.773Z,86.01
2022-11-24T21:41:05.787Z,85.82
2022-11-24T21:43:07.150Z,86.07
2022-11-24T21:45:11.463Z,85.78
2022-11-24T21:47:12.930Z,86.01
2022-11-24T21:49:14.330Z,85.87
2022-11-24T21:51:17.860Z,86.15
2022-11-24T21:53:19.278Z,86.23
2022-11-24T21:55:20.610Z,86.08
2022-11-24T21:57:23.064Z,86.34
2022-11-24T21:59:24.544Z,86.58
2022-11-24T22:01:28.091Z,86.54
2022-11-24T22:03:29.645Z,86.51
2022-11-24T22:05:31.011Z,86.21
2022-11-24T22:07:32.685Z,86.59
2022-11-24T22:09:34.455Z,86.64
2022-11-24T22:11:35.810Z,86.46
2022-11-24T22:13:37.406Z,86.80
2022-11-24T22:15:38.804Z,86.47
2022-11-24T22:17:41.270Z,86.62
2022-11-24T22:19:42.624Z,86.94
2022-11-24T22:21:44.801Z,86.64
2022-11-24T22:23:46.311Z,87.20
2022-11-24T22:25:47.639Z,87.15
2022-11-24T22:27:49.997Z,87.00
2022-11-24T22:29:54.253Z,86.86
2022-11-24T22:31:55.816Z,86.89
2022-11-24T22:33:58.488Z,87.45
2022-11-24T22:36:00.936Z,87.17
2022-11-24T22:38:02.335Z,87.07
2022-11-24T22:40:03.977Z,87.14
2022-11-24T22:42:07.281Z,87.25
2022-11-24T22:44:08.741Z,87.21
2022-11-24T22:46:21.690Z,87.14
2022-11-24T22:48:23.244Z,87.01
2022-11-24T22:50:24.606Z,87.32
2022-11-24T22:52:25.960Z,87.80
2022-11-24T22:54:27.330Z,87.64
2022-11-24T22:56:30.273Z,87.19
2022-11-24T22:58:32.843Z,87.84
2022-11-24T23:00:34.230Z,88.17
2022-11-24T23:02:35.664Z,87.49
2022-11-24T23:04:37.488Z,87.79
2022-11-24T23:06:39.027Z,88.05
2022-11-24T23:08:40.472Z,87.67
2022-11-24T23:10:41.819Z,88.08
2022-11-24T23:12:43.181Z,87.53
2022-11-24T23:14:44.550Z,88.18
2022-11-24T23:16:45.954Z,88.07
2022-11-24T23:18:52.402Z,88.24
2022-11-24T23:20:55.331Z,87.62
2022-11-24T23:22:57.118Z,88.78
2022-11-24T23:24:58.474Z,87.84
2022-11-24T23:26:59.840Z,87.59
2022-11-24T23:29:01.564Z,87.84
2022-11-24T23:33:35.258Z,87.92
2022-11-24T23:35:36.587Z,87.78
2022-11-24T23:37:59.707Z,87.37
2022-11-24T23:39:59.336Z,88.25
2022-11-24T23:42:00.747Z,87.89
2022-11-24T23:44:02.202Z,87.95
2022-11-24T23:46:04.787Z,87.91
2022-11-24T23:48:08.672Z,87.86
2022-11-24T23:50:10.219Z,87.58
2022-11-24T23:52:11.645Z,87.81
2022-11-24T23:54:13.095Z,87.61
2022-11-24T23:56:17.656Z,87.67
2022-11-24T23:58:19.018Z,88.00
